Ware Neck, Virginia
Current Conditions -  °F | °C
As of 12:15 PM on Thursday 30 Oct 2014 (Local Time) from KW75 Reporting Station
Clear Clear  
Wind Chill: 60°   Ceiling: Unl
Heat Index: 60°   Visibility: 10mi
Dew Point: 41°   Wind: 10mph
Humidity: 49%   Direction: 350°N
Pressure: 30.04"   Gusts: NA
Location:  37.4°N, 76.46°W
Report Text: KW75 301615Z AUTO 35009KT 10SM CLR 16/05 A3004 RMK AO1 T01560050
Loading
Personal Weather Stations






























Interactive Weather Map
Tropical Storm Tracking
New forecast layout! Learn more

10-Day Weather Forecast

Advertisements
Track Severe Weather on mobile